sensor_id;sensor_type;location;lat;lon;timestamp;P1;durP1;ratioP1;P2;durP2;ratioP2
54263;SDS011;40178;53.042;6.406;2024-03-08T00:01:49;31.20;;;18.30;;
54263;SDS011;40178;53.042;6.406;2024-03-08T00:04:14;30.48;;;18.23;;
54263;SDS011;40178;53.042;6.406;2024-03-08T00:06:41;32.83;;;18.58;;
54263;SDS011;40178;53.042;6.406;2024-03-08T00:09:06;33.58;;;19.45;;
54263;SDS011;40178;53.042;6.406;2024-03-08T00:11:35;33.30;;;19.00;;
54263;SDS011;40178;53.042;6.406;2024-03-08T00:14:01;33.10;;;18.60;;
54263;SDS011;40178;53.042;6.406;2024-03-08T00:16:27;34.05;;;19.58;;
54263;SDS011;40178;53.042;6.406;2024-03-08T00:18:53;31.45;;;18.27;;
54263;SDS011;40178;53.042;6.406;2024-03-08T00:21:18;34.03;;;18.10;;
54263;SDS011;40178;53.042;6.406;2024-03-08T00:23:44;32.20;;;18.80;;
54263;SDS011;40178;53.042;6.406;2024-03-08T00:26:09;30.65;;;18.38;;
54263;SDS011;40178;53.042;6.406;2024-03-08T00:28:35;32.95;;;18.60;;
54263;SDS011;40178;53.042;6.406;2024-03-08T00:31:01;32.78;;;19.58;;
54263;SDS011;40178;53.042;6.406;2024-03-08T00:33:26;27.58;;;17.67;;
54263;SDS011;40178;53.042;6.406;2024-03-08T00:35:52;30.80;;;18.42;;
54263;SDS011;40178;53.042;6.406;2024-03-08T00:38:19;30.98;;;17.90;;
54263;SDS011;40178;53.042;6.406;2024-03-08T00:40:44;32.83;;;19.90;;
54263;SDS011;40178;53.042;6.406;2024-03-08T00:43:10;32.40;;;18.52;;
54263;SDS011;40178;53.042;6.406;2024-03-08T00:45:36;30.35;;;19.23;;
54263;SDS011;40178;53.042;6.406;2024-03-08T00:48:02;33.25;;;19.05;;
54263;SDS011;40178;53.042;6.406;2024-03-08T00:50:29;34.15;;;20.25;;
54263;SDS011;40178;53.042;6.406;2024-03-08T00:52:54;32.33;;;19.35;;
54263;SDS011;40178;53.042;6.406;2024-03-08T00:55:21;34.90;;;19.35;;
54263;SDS011;40178;53.042;6.406;2024-03-08T00:57:46;32.90;;;18.98;;
54263;SDS011;40178;53.042;6.406;2024-03-08T01:00:12;34.70;;;20.00;;
54263;SDS011;40178;53.042;6.406;2024-03-08T01:02:38;33.88;;;19.60;;
54263;SDS011;40178;53.042;6.406;2024-03-08T01:05:05;39.63;;;23.05;;
54263;SDS011;40178;53.042;6.406;2024-03-08T01:07:34;34.58;;;19.52;;
54263;SDS011;40178;53.042;6.406;2024-03-08T01:10:01;34.28;;;19.30;;
54263;SDS011;40178;53.042;6.406;2024-03-08T01:12:28;35.28;;;20.48;;
54263;SDS011;40178;53.042;6.406;2024-03-08T01:14:54;34.10;;;19.50;;
54263;SDS011;40178;53.042;6.406;2024-03-08T01:17:20;36.28;;;19.40;;
54263;SDS011;40178;53.042;6.406;2024-03-08T01:19:46;34.13;;;20.63;;
54263;SDS011;40178;53.042;6.406;2024-03-08T01:22:12;38.03;;;20.75;;
54263;SDS011;40178;53.042;6.406;2024-03-08T01:24:37;33.88;;;20.63;;
54263;SDS011;40178;53.042;6.406;2024-03-08T01:27:03;34.45;;;20.67;;
54263;SDS011;40178;53.042;6.406;2024-03-08T01:29:29;40.05;;;21.00;;
54263;SDS011;40178;53.042;6.406;2024-03-08T01:31:55;32.55;;;19.90;;
54263;SDS011;40178;53.042;6.406;2024-03-08T01:34:21;37.60;;;20.05;;
54263;SDS011;40178;53.042;6.406;2024-03-08T01:36:50;33.38;;;20.70;;
54263;SDS011;40178;53.042;6.406;2024-03-08T01:39:16;36.08;;;21.85;;
54263;SDS011;40178;53.042;6.406;2024-03-08T01:41:42;36.17;;;19.92;;
54263;SDS011;40178;53.042;6.406;2024-03-08T01:44:07;33.75;;;19.80;;
54263;SDS011;40178;53.042;6.406;2024-03-08T01:46:34;34.08;;;20.05;;
54263;SDS011;40178;53.042;6.406;2024-03-08T01:49:00;37.05;;;21.55;;
54263;SDS011;40178;53.042;6.406;2024-03-08T01:51:26;35.38;;;20.55;;
54263;SDS011;40178;53.042;6.406;2024-03-08T01:53:53;37.83;;;20.88;;
54263;SDS011;40178;53.042;6.406;2024-03-08T01:56:20;35.85;;;20.40;;
54263;SDS011;40178;53.042;6.406;2024-03-08T01:58:46;36.08;;;21.05;;
54263;SDS011;40178;53.042;6.406;2024-03-08T02:01:12;35.45;;;20.60;;
54263;SDS011;40178;53.042;6.406;2024-03-08T02:03:40;36.47;;;20.45;;
54263;SDS011;40178;53.042;6.406;2024-03-08T02:06:05;42.55;;;22.30;;
54263;SDS011;40178;53.042;6.406;2024-03-08T02:08:35;39.00;;;21.20;;
54263;SDS011;40178;53.042;6.406;2024-03-08T02:11:01;35.20;;;19.83;;
54263;SDS011;40178;53.042;6.406;2024-03-08T02:13:27;34.75;;;19.85;;
54263;SDS011;40178;53.042;6.406;2024-03-08T02:15:58;33.03;;;19.33;;
54263;SDS011;40178;53.042;6.406;2024-03-08T02:18:24;37.75;;;20.67;;
54263;SDS011;40178;53.042;6.406;2024-03-08T02:20:51;36.80;;;20.63;;
54263;SDS011;40178;53.042;6.406;2024-03-08T02:23:20;34.25;;;20.63;;
54263;SDS011;40178;53.042;6.406;2024-03-08T02:25:46;34.97;;;20.98;;
54263;SDS011;40178;53.042;6.406;2024-03-08T02:28:14;37.38;;;20.73;;
54263;SDS011;40178;53.042;6.406;2024-03-08T02:30:40;39.97;;;21.30;;
54263;SDS011;40178;53.042;6.406;2024-03-08T02:33:06;36.75;;;21.42;;
54263;SDS011;40178;53.042;6.406;2024-03-08T02:35:32;35.35;;;21.45;;
54263;SDS011;40178;53.042;6.406;2024-03-08T02:37:59;35.97;;;20.25;;
54263;SDS011;40178;53.042;6.406;2024-03-08T02:40:25;34.28;;;20.92;;
54263;SDS011;40178;53.042;6.406;2024-03-08T02:42:50;35.75;;;20.42;;
54263;SDS011;40178;53.042;6.406;2024-03-08T02:45:16;34.55;;;21.40;;
54263;SDS011;40178;53.042;6.406;2024-03-08T02:47:42;36.85;;;20.35;;
54263;SDS011;40178;53.042;6.406;2024-03-08T02:50:08;37.22;;;20.63;;
54263;SDS011;40178;53.042;6.406;2024-03-08T02:52:34;40.70;;;22.17;;
54263;SDS011;40178;53.042;6.406;2024-03-08T02:55:00;43.33;;;21.75;;
54263;SDS011;40178;53.042;6.406;2024-03-08T02:57:31;39.85;;;21.30;;
54263;SDS011;40178;53.042;6.406;2024-03-08T02:59:57;37.10;;;21.27;;
54263;SDS011;40178;53.042;6.406;2024-03-08T03:02:24;35.72;;;20.42;;
54263;SDS011;40178;53.042;6.406;2024-03-08T03:04:51;37.50;;;21.70;;
54263;SDS011;40178;53.042;6.406;2024-03-08T03:07:17;44.78;;;22.50;;
54263;SDS011;40178;53.042;6.406;2024-03-08T03:09:43;40.28;;;21.65;;
54263;SDS011;40178;53.042;6.406;2024-03-08T03:12:09;38.10;;;20.98;;
54263;SDS011;40178;53.042;6.406;2024-03-08T03:14:37;34.75;;;20.67;;
54263;SDS011;40178;53.042;6.406;2024-03-08T03:17:03;37.95;;;21.83;;
54263;SDS011;40178;53.042;6.406;2024-03-08T03:19:30;36.95;;;21.20;;
54263;SDS011;40178;53.042;6.406;2024-03-08T03:21:55;34.97;;;20.65;;
54263;SDS011;40178;53.042;6.406;2024-03-08T03:24:22;36.05;;;20.65;;
54263;SDS011;40178;53.042;6.406;2024-03-08T03:26:48;37.05;;;21.70;;
54263;SDS011;40178;53.042;6.406;2024-03-08T03:29:14;36.55;;;21.23;;
54263;SDS011;40178;53.042;6.406;2024-03-08T03:31:41;38.65;;;21.38;;
54263;SDS011;40178;53.042;6.406;2024-03-08T03:34:10;39.05;;;20.77;;
54263;SDS011;40178;53.042;6.406;2024-03-08T03:36:37;36.90;;;20.85;;
54263;SDS011;40178;53.042;6.406;2024-03-08T03:39:07;42.05;;;22.38;;
54263;SDS011;40178;53.042;6.406;2024-03-08T03:41:38;38.80;;;21.00;;
54263;SDS011;40178;53.042;6.406;2024-03-08T03:44:04;37.35;;;20.52;;
54263;SDS011;40178;53.042;6.406;2024-03-08T03:46:32;36.30;;;21.70;;
54263;SDS011;40178;53.042;6.406;2024-03-08T03:48:58;38.63;;;21.00;;
54263;SDS011;40178;53.042;6.406;2024-03-08T03:51:23;34.60;;;20.02;;
54263;SDS011;40178;53.042;6.406;2024-03-08T03:53:49;34.92;;;20.77;;
54263;SDS011;40178;53.042;6.406;2024-03-08T03:56:15;37.72;;;22.17;;
54263;SDS011;40178;53.042;6.406;2024-03-08T03:58:41;35.75;;;20.77;;
54263;SDS011;40178;53.042;6.406;2024-03-08T04:01:07;38.38;;;21.52;;
54263;SDS011;40178;53.042;6.406;2024-03-08T04:03:34;40.75;;;22.92;;
54263;SDS011;40178;53.042;6.406;2024-03-08T04:06:00;33.72;;;20.13;;
54263;SDS011;40178;53.042;6.406;2024-03-08T04:08:27;40.00;;;21.67;;
54263;SDS011;40178;53.042;6.406;2024-03-08T04:10:52;34.35;;;21.58;;
54263;SDS011;40178;53.042;6.406;2024-03-08T04:13:18;36.90;;;21.90;;
54263;SDS011;40178;53.042;6.406;2024-03-08T04:15:45;35.17;;;19.88;;
54263;SDS011;40178;53.042;6.406;2024-03-08T04:18:13;39.20;;;21.83;;
54263;SDS011;40178;53.042;6.406;2024-03-08T04:20:39;34.10;;;20.33;;
54263;SDS011;40178;53.042;6.406;2024-03-08T04:23:05;36.17;;;21.77;;
54263;SDS011;40178;53.042;6.406;2024-03-08T04:25:31;36.97;;;20.42;;
54263;SDS011;40178;53.042;6.406;2024-03-08T04:27:57;36.08;;;19.88;;
54263;SDS011;40178;53.042;6.406;2024-03-08T04:30:23;39.05;;;21.75;;
54263;SDS011;40178;53.042;6.406;2024-03-08T04:32:49;37.75;;;21.75;;
54263;SDS011;40178;53.042;6.406;2024-03-08T04:35:15;35.60;;;20.80;;
54263;SDS011;40178;53.042;6.406;2024-03-08T04:37:41;34.22;;;20.40;;
54263;SDS011;40178;53.042;6.406;2024-03-08T04:40:07;35.85;;;21.40;;
54263;SDS011;40178;53.042;6.406;2024-03-08T04:42:32;38.75;;;21.33;;
54263;SDS011;40178;53.042;6.406;2024-03-08T04:44:59;37.47;;;22.17;;
54263;SDS011;40178;53.042;6.406;2024-03-08T04:47:25;38.53;;;20.45;;
54263;SDS011;40178;53.042;6.406;2024-03-08T04:49:51;35.90;;;20.67;;
54263;SDS011;40178;53.042;6.406;2024-03-08T04:52:16;39.67;;;21.58;;
54263;SDS011;40178;53.042;6.406;2024-03-08T04:54:42;35.97;;;20.50;;
54263;SDS011;40178;53.042;6.406;2024-03-08T04:57:09;34.47;;;20.08;;
54263;SDS011;40178;53.042;6.406;2024-03-08T04:59:36;35.08;;;20.13;;
54263;SDS011;40178;53.042;6.406;2024-03-08T05:02:01;32.35;;;20.58;;
54263;SDS011;40178;53.042;6.406;2024-03-08T05:04:27;35.50;;;20.90;;
54263;SDS011;40178;53.042;6.406;2024-03-08T05:06:54;33.38;;;19.35;;
54263;SDS011;40178;53.042;6.406;2024-03-08T05:09:20;34.08;;;20.45;;
54263;SDS011;40178;53.042;6.406;2024-03-08T05:11:46;32.95;;;19.45;;
54263;SDS011;40178;53.042;6.406;2024-03-08T05:14:13;33.22;;;20.20;;
54263;SDS011;40178;53.042;6.406;2024-03-08T05:16:45;33.13;;;19.90;;
54263;SDS011;40178;53.042;6.406;2024-03-08T05:19:15;33.95;;;19.10;;
54263;SDS011;40178;53.042;6.406;2024-03-08T05:21:44;31.10;;;18.10;;
54263;SDS011;40178;53.042;6.406;2024-03-08T05:24:10;34.78;;;20.75;;
54263;SDS011;40178;53.042;6.406;2024-03-08T05:26:36;32.20;;;19.88;;
54263;SDS011;40178;53.042;6.406;2024-03-08T05:29:04;33.03;;;18.30;;
54263;SDS011;40178;53.042;6.406;2024-03-08T05:31:36;32.63;;;18.13;;
54263;SDS011;40178;53.042;6.406;2024-03-08T05:34:10;36.33;;;19.48;;
54263;SDS011;40178;53.042;6.406;2024-03-08T05:36:36;32.20;;;19.20;;
54263;SDS011;40178;53.042;6.406;2024-03-08T05:39:01;34.17;;;19.75;;
54263;SDS011;40178;53.042;6.406;2024-03-08T05:41:27;33.20;;;20.23;;
54263;SDS011;40178;53.042;6.406;2024-03-08T05:43:53;35.65;;;18.77;;
54263;SDS011;40178;53.042;6.406;2024-03-08T05:46:18;32.15;;;19.42;;
54263;SDS011;40178;53.042;6.406;2024-03-08T05:48:44;34.42;;;19.58;;
54263;SDS011;40178;53.042;6.406;2024-03-08T05:51:10;32.13;;;19.02;;
54263;SDS011;40178;53.042;6.406;2024-03-08T05:53:37;34.35;;;19.25;;
54263;SDS011;40178;53.042;6.406;2024-03-08T05:56:02;37.55;;;20.45;;
54263;SDS011;40178;53.042;6.406;2024-03-08T05:58:28;32.97;;;19.35;;
54263;SDS011;40178;53.042;6.406;2024-03-08T06:00:57;33.35;;;20.25;;
54263;SDS011;40178;53.042;6.406;2024-03-08T06:03:22;33.95;;;19.50;;
54263;SDS011;40178;53.042;6.406;2024-03-08T06:05:48;30.50;;;19.58;;
54263;SDS011;40178;53.042;6.406;2024-03-08T06:08:14;36.22;;;20.00;;
54263;SDS011;40178;53.042;6.406;2024-03-08T06:10:40;31.92;;;19.65;;
54263;SDS011;40178;53.042;6.406;2024-03-08T06:13:06;34.80;;;20.42;;
54263;SDS011;40178;53.042;6.406;2024-03-08T06:15:32;33.60;;;18.45;;
54263;SDS011;40178;53.042;6.406;2024-03-08T06:17:57;31.98;;;20.02;;
54263;SDS011;40178;53.042;6.406;2024-03-08T06:20:23;33.58;;;19.73;;
54263;SDS011;40178;53.042;6.406;2024-03-08T06:22:51;33.33;;;19.70;;
54263;SDS011;40178;53.042;6.406;2024-03-08T06:25:17;36.50;;;20.45;;
54263;SDS011;40178;53.042;6.406;2024-03-08T06:27:43;33.70;;;20.77;;
54263;SDS011;40178;53.042;6.406;2024-03-08T06:30:09;30.90;;;18.75;;
54263;SDS011;40178;53.042;6.406;2024-03-08T06:32:36;32.67;;;19.27;;
54263;SDS011;40178;53.042;6.406;2024-03-08T06:35:02;32.17;;;20.15;;
54263;SDS011;40178;53.042;6.406;2024-03-08T06:37:31;30.67;;;19.02;;
54263;SDS011;40178;53.042;6.406;2024-03-08T06:39:57;30.33;;;18.48;;
54263;SDS011;40178;53.042;6.406;2024-03-08T06:42:23;31.95;;;18.45;;
54263;SDS011;40178;53.042;6.406;2024-03-08T06:44:48;33.40;;;20.42;;
54263;SDS011;40178;53.042;6.406;2024-03-08T06:47:17;34.90;;;19.67;;
54263;SDS011;40178;53.042;6.406;2024-03-08T06:49:43;33.42;;;19.55;;
54263;SDS011;40178;53.042;6.406;2024-03-08T06:52:12;32.88;;;18.67;;
54263;SDS011;40178;53.042;6.406;2024-03-08T06:54:37;33.35;;;19.88;;
54263;SDS011;40178;53.042;6.406;2024-03-08T06:57:04;30.65;;;18.30;;
54263;SDS011;40178;53.042;6.406;2024-03-08T06:59:30;32.45;;;19.17;;
54263;SDS011;40178;53.042;6.406;2024-03-08T07:01:56;33.00;;;18.60;;
54263;SDS011;40178;53.042;6.406;2024-03-08T07:04:22;31.85;;;18.88;;
54263;SDS011;40178;53.042;6.406;2024-03-08T07:06:51;34.53;;;20.30;;
54263;SDS011;40178;53.042;6.406;2024-03-08T07:09:17;31.85;;;18.35;;
54263;SDS011;40178;53.042;6.406;2024-03-08T07:11:43;35.67;;;19.55;;
54263;SDS011;40178;53.042;6.406;2024-03-08T07:14:08;32.55;;;19.00;;
54263;SDS011;40178;53.042;6.406;2024-03-08T07:16:34;31.50;;;18.25;;
54263;SDS011;40178;53.042;6.406;2024-03-08T07:19:04;37.67;;;20.48;;
54263;SDS011;40178;53.042;6.406;2024-03-08T07:21:30;35.10;;;20.15;;
54263;SDS011;40178;53.042;6.406;2024-03-08T07:23:56;31.13;;;19.30;;
54263;SDS011;40178;53.042;6.406;2024-03-08T07:26:25;32.30;;;18.88;;
54263;SDS011;40178;53.042;6.406;2024-03-08T07:28:51;32.42;;;18.65;;
54263;SDS011;40178;53.042;6.406;2024-03-08T07:31:16;30.83;;;19.05;;
54263;SDS011;40178;53.042;6.406;2024-03-08T07:33:51;32.00;;;19.27;;
54263;SDS011;40178;53.042;6.406;2024-03-08T07:36:21;31.90;;;17.95;;
54263;SDS011;40178;53.042;6.406;2024-03-08T07:38:49;32.60;;;19.63;;
54263;SDS011;40178;53.042;6.406;2024-03-08T07:41:15;31.98;;;18.15;;
54263;SDS011;40178;53.042;6.406;2024-03-08T07:43:41;30.02;;;18.13;;
54263;SDS011;40178;53.042;6.406;2024-03-08T07:46:07;30.20;;;17.27;;
54263;SDS011;40178;53.042;6.406;2024-03-08T07:48:35;30.15;;;18.27;;
54263;SDS011;40178;53.042;6.406;2024-03-08T07:51:01;32.83;;;19.15;;
54263;SDS011;40178;53.042;6.406;2024-03-08T07:53:30;29.08;;;18.67;;
54263;SDS011;40178;53.042;6.406;2024-03-08T07:55:56;30.23;;;18.20;;
54263;SDS011;40178;53.042;6.406;2024-03-08T07:58:22;32.35;;;19.00;;
54263;SDS011;40178;53.042;6.406;2024-03-08T08:00:48;32.42;;;19.20;;
54263;SDS011;40178;53.042;6.406;2024-03-08T08:03:14;36.17;;;21.08;;
54263;SDS011;40178;53.042;6.406;2024-03-08T08:05:41;31.02;;;18.92;;
54263;SDS011;40178;53.042;6.406;2024-03-08T08:08:07;29.45;;;18.27;;
54263;SDS011;40178;53.042;6.406;2024-03-08T08:10:35;31.20;;;18.73;;
54263;SDS011;40178;53.042;6.406;2024-03-08T08:13:02;30.85;;;19.40;;
54263;SDS011;40178;53.042;6.406;2024-03-08T08:15:29;29.70;;;17.60;;
54263;SDS011;40178;53.042;6.406;2024-03-08T08:17:55;30.38;;;18.05;;
54263;SDS011;40178;53.042;6.406;2024-03-08T08:20:21;32.85;;;17.98;;
54263;SDS011;40178;53.042;6.406;2024-03-08T08:22:48;28.80;;;17.77;;
54263;SDS011;40178;53.042;6.406;2024-03-08T08:25:13;31.83;;;18.27;;
54263;SDS011;40178;53.042;6.406;2024-03-08T08:27:40;31.95;;;18.38;;
54263;SDS011;40178;53.042;6.406;2024-03-08T08:30:09;30.30;;;18.63;;
54263;SDS011;40178;53.042;6.406;2024-03-08T08:32:36;30.83;;;18.27;;
54263;SDS011;40178;53.042;6.406;2024-03-08T08:35:03;33.95;;;18.95;;
54263;SDS011;40178;53.042;6.406;2024-03-08T08:37:30;31.25;;;17.95;;
54263;SDS011;40178;53.042;6.406;2024-03-08T08:39:56;34.38;;;19.23;;
54263;SDS011;40178;53.042;6.406;2024-03-08T08:42:22;29.25;;;17.85;;
54263;SDS011;40178;53.042;6.406;2024-03-08T08:44:48;31.00;;;19.25;;
54263;SDS011;40178;53.042;6.406;2024-03-08T08:47:15;31.33;;;19.65;;
54263;SDS011;40178;53.042;6.406;2024-03-08T08:49:44;32.70;;;18.70;;
54263;SDS011;40178;53.042;6.406;2024-03-08T08:52:11;30.17;;;19.10;;
54263;SDS011;40178;53.042;6.406;2024-03-08T08:54:37;31.60;;;19.10;;
54263;SDS011;40178;53.042;6.406;2024-03-08T08:57:03;31.90;;;19.15;;
54263;SDS011;40178;53.042;6.406;2024-03-08T08:59:33;31.08;;;18.63;;
54263;SDS011;40178;53.042;6.406;2024-03-08T09:02:01;29.40;;;18.15;;
54263;SDS011;40178;53.042;6.406;2024-03-08T09:04:28;32.55;;;19.77;;
54263;SDS011;40178;53.042;6.406;2024-03-08T09:06:55;30.67;;;18.38;;
54263;SDS011;40178;53.042;6.406;2024-03-08T09:09:22;28.33;;;17.80;;
54263;SDS011;40178;53.042;6.406;2024-03-08T09:11:47;29.60;;;18.73;;
54263;SDS011;40178;53.042;6.406;2024-03-08T09:14:14;29.65;;;17.83;;
54263;SDS011;40178;53.042;6.406;2024-03-08T09:16:40;27.80;;;17.95;;
54263;SDS011;40178;53.042;6.406;2024-03-08T09:19:06;29.92;;;18.67;;
54263;SDS011;40178;53.042;6.406;2024-03-08T09:21:32;29.30;;;17.60;;
54263;SDS011;40178;53.042;6.406;2024-03-08T09:24:00;29.35;;;18.60;;
54263;SDS011;40178;53.042;6.406;2024-03-08T09:26:26;31.20;;;19.42;;
54263;SDS011;40178;53.042;6.406;2024-03-08T09:28:52;28.85;;;17.65;;
54263;SDS011;40178;53.042;6.406;2024-03-08T09:31:19;27.23;;;17.10;;
54263;SDS011;40178;53.042;6.406;2024-03-08T09:33:46;26.33;;;17.25;;
54263;SDS011;40178;53.042;6.406;2024-03-08T09:36:11;28.80;;;18.25;;
54263;SDS011;40178;53.042;6.406;2024-03-08T09:38:39;29.77;;;18.35;;
54263;SDS011;40178;53.042;6.406;2024-03-08T09:41:05;30.13;;;16.75;;
54263;SDS011;40178;53.042;6.406;2024-03-08T09:43:30;26.63;;;16.92;;
54263;SDS011;40178;53.042;6.406;2024-03-08T09:45:56;29.50;;;17.60;;
54263;SDS011;40178;53.042;6.406;2024-03-08T09:48:23;28.02;;;16.92;;
54263;SDS011;40178;53.042;6.406;2024-03-08T09:50:51;31.25;;;18.52;;
54263;SDS011;40178;53.042;6.406;2024-03-08T09:53:16;27.80;;;18.45;;
54263;SDS011;40178;53.042;6.406;2024-03-08T09:55:43;26.52;;;17.33;;
54263;SDS011;40178;53.042;6.406;2024-03-08T09:58:13;30.27;;;18.70;;
54263;SDS011;40178;53.042;6.406;2024-03-08T10:00:46;28.17;;;18.00;;
54263;SDS011;40178;53.042;6.406;2024-03-08T10:03:12;27.50;;;17.92;;
54263;SDS011;40178;53.042;6.406;2024-03-08T10:05:39;26.52;;;16.95;;
54263;SDS011;40178;53.042;6.406;2024-03-08T10:08:06;31.23;;;19.15;;
54263;SDS011;40178;53.042;6.406;2024-03-08T10:10:35;28.05;;;18.83;;
54263;SDS011;40178;53.042;6.406;2024-03-08T10:13:02;29.65;;;17.85;;
54263;SDS011;40178;53.042;6.406;2024-03-08T10:15:34;28.80;;;18.48;;
54263;SDS011;40178;53.042;6.406;2024-03-08T10:18:00;29.15;;;17.98;;
54263;SDS011;40178;53.042;6.406;2024-03-08T10:20:30;28.60;;;17.83;;
54263;SDS011;40178;53.042;6.406;2024-03-08T10:23:02;28.65;;;18.13;;
54263;SDS011;40178;53.042;6.406;2024-03-08T10:25:30;28.13;;;18.70;;
54263;SDS011;40178;53.042;6.406;2024-03-08T10:27:56;28.10;;;17.45;;
54263;SDS011;40178;53.042;6.406;2024-03-08T10:30:22;28.70;;;18.02;;
54263;SDS011;40178;53.042;6.406;2024-03-08T10:32:48;28.88;;;17.42;;
54263;SDS011;40178;53.042;6.406;2024-03-08T10:35:13;27.48;;;17.52;;
54263;SDS011;40178;53.042;6.406;2024-03-08T10:37:46;31.15;;;18.30;;
54263;SDS011;40178;53.042;6.406;2024-03-08T10:40:15;29.52;;;18.60;;
54263;SDS011;40178;53.042;6.406;2024-03-08T10:42:53;27.85;;;17.38;;
54263;SDS011;40178;53.042;6.406;2024-03-08T10:45:36;25.83;;;17.48;;
54263;SDS011;40178;53.042;6.406;2024-03-08T10:50:38;26.15;;;17.27;;
54263;SDS011;40178;53.042;6.406;2024-03-08T10:53:04;30.52;;;17.55;;
54263;SDS011;40178;53.042;6.406;2024-03-08T10:55:31;26.02;;;18.25;;
54263;SDS011;40178;53.042;6.406;2024-03-08T10:57:59;26.55;;;17.95;;
54263;SDS011;40178;53.042;6.406;2024-03-08T11:00:25;30.48;;;18.45;;
54263;SDS011;40178;53.042;6.406;2024-03-08T11:02:52;28.17;;;18.83;;
54263;SDS011;40178;53.042;6.406;2024-03-08T11:05:37;28.83;;;18.77;;
54263;SDS011;40178;53.042;6.406;2024-03-08T11:08:24;29.17;;;18.58;;
54263;SDS011;40178;53.042;6.406;2024-03-08T11:10:53;30.48;;;18.20;;
54263;SDS011;40178;53.042;6.406;2024-03-08T11:13:36;28.23;;;18.60;;
54263;SDS011;40178;53.042;6.406;2024-03-08T11:16:08;26.35;;;18.95;;
54263;SDS011;40178;53.042;6.406;2024-03-08T11:18:35;28.50;;;18.67;;
54263;SDS011;40178;53.042;6.406;2024-03-08T11:21:03;28.90;;;19.40;;
54263;SDS011;40178;53.042;6.406;2024-03-08T11:23:32;29.02;;;17.70;;
54263;SDS011;40178;53.042;6.406;2024-03-08T11:25:58;28.08;;;18.27;;
54263;SDS011;40178;53.042;6.406;2024-03-08T11:28:24;27.23;;;16.80;;
54263;SDS011;40178;53.042;6.406;2024-03-08T11:33:36;27.58;;;17.30;;
54263;SDS011;40178;53.042;6.406;2024-03-08T11:36:12;26.42;;;16.40;;
54263;SDS011;40178;53.042;6.406;2024-03-08T11:38:41;28.83;;;16.70;;
54263;SDS011;40178;53.042;6.406;2024-03-08T11:41:22;28.10;;;17.70;;
54263;SDS011;40178;53.042;6.406;2024-03-08T11:43:49;28.60;;;16.58;;
54263;SDS011;40178;53.042;6.406;2024-03-08T11:46:26;28.58;;;17.83;;
54263;SDS011;40178;53.042;6.406;2024-03-08T11:48:54;28.25;;;17.92;;
54263;SDS011;40178;53.042;6.406;2024-03-08T11:51:21;25.13;;;17.52;;
54263;SDS011;40178;53.042;6.406;2024-03-08T11:53:48;27.50;;;16.60;;
54263;SDS011;40178;53.042;6.406;2024-03-08T11:56:15;30.50;;;18.83;;
54263;SDS011;40178;53.042;6.406;2024-03-08T11:58:41;25.52;;;17.15;;
54263;SDS011;40178;53.042;6.406;2024-03-08T12:01:17;27.40;;;18.13;;
54263;SDS011;40178;53.042;6.406;2024-03-08T12:03:43;30.23;;;18.42;;
54263;SDS011;40178;53.042;6.406;2024-03-08T12:06:09;27.17;;;17.25;;
54263;SDS011;40178;53.042;6.406;2024-03-08T12:08:35;26.02;;;17.60;;
54263;SDS011;40178;53.042;6.406;2024-03-08T12:11:03;25.23;;;16.92;;
54263;SDS011;40178;53.042;6.406;2024-03-08T12:13:30;26.27;;;16.85;;
54263;SDS011;40178;53.042;6.406;2024-03-08T12:15:57;26.70;;;16.70;;
54263;SDS011;40178;53.042;6.406;2024-03-08T12:18:27;34.92;;;23.83;;
54263;SDS011;40178;53.042;6.406;2024-03-08T12:21:08;26.65;;;18.35;;
54263;SDS011;40178;53.042;6.406;2024-03-08T12:23:47;27.08;;;17.77;;
54263;SDS011;40178;53.042;6.406;2024-03-08T12:26:23;30.33;;;22.27;;
54263;SDS011;40178;53.042;6.406;2024-03-08T12:28:51;26.65;;;16.73;;
54263;SDS011;40178;53.042;6.406;2024-03-08T12:31:17;25.27;;;16.95;;
54263;SDS011;40178;53.042;6.406;2024-03-08T12:33:49;27.75;;;17.05;;
54263;SDS011;40178;53.042;6.406;2024-03-08T12:36:16;26.95;;;17.58;;
54263;SDS011;40178;53.042;6.406;2024-03-08T12:38:45;25.48;;;16.27;;
54263;SDS011;40178;53.042;6.406;2024-03-08T12:41:15;29.38;;;18.77;;
54263;SDS011;40178;53.042;6.406;2024-03-08T12:43:42;26.48;;;16.73;;
54263;SDS011;40178;53.042;6.406;2024-03-08T12:46:13;26.35;;;16.20;;
54263;SDS011;40178;53.042;6.406;2024-03-08T12:48:39;27.23;;;17.00;;
54263;SDS011;40178;53.042;6.406;2024-03-08T12:51:08;25.13;;;17.20;;
54263;SDS011;40178;53.042;6.406;2024-03-08T12:53:34;23.40;;;16.30;;
54263;SDS011;40178;53.042;6.406;2024-03-08T12:56:00;25.42;;;16.60;;
54263;SDS011;40178;53.042;6.406;2024-03-08T12:58:25;29.33;;;16.98;;
54263;SDS011;40178;53.042;6.406;2024-03-08T13:00:51;24.08;;;15.40;;
54263;SDS011;40178;53.042;6.406;2024-03-08T13:03:17;24.85;;;17.38;;
54263;SDS011;40178;53.042;6.406;2024-03-08T13:05:43;26.38;;;16.85;;
54263;SDS011;40178;53.042;6.406;2024-03-08T13:08:09;27.48;;;16.58;;
54263;SDS011;40178;53.042;6.406;2024-03-08T13:10:38;26.00;;;16.35;;
54263;SDS011;40178;53.042;6.406;2024-03-08T13:13:04;25.88;;;17.05;;
54263;SDS011;40178;53.042;6.406;2024-03-08T13:15:30;26.17;;;16.08;;
54263;SDS011;40178;53.042;6.406;2024-03-08T13:17:56;26.90;;;17.17;;
54263;SDS011;40178;53.042;6.406;2024-03-08T13:20:25;24.67;;;17.17;;
54263;SDS011;40178;53.042;6.406;2024-03-08T13:22:53;25.27;;;16.02;;
54263;SDS011;40178;53.042;6.406;2024-03-08T13:25:19;25.02;;;16.80;;
54263;SDS011;40178;53.042;6.406;2024-03-08T13:27:45;26.15;;;16.10;;
54263;SDS011;40178;53.042;6.406;2024-03-08T13:30:11;25.27;;;15.63;;
54263;SDS011;40178;53.042;6.406;2024-03-08T13:32:41;25.15;;;16.92;;
54263;SDS011;40178;53.042;6.406;2024-03-08T13:35:11;25.45;;;15.65;;
54263;SDS011;40178;53.042;6.406;2024-03-08T13:37:40;25.15;;;16.38;;
54263;SDS011;40178;53.042;6.406;2024-03-08T13:40:07;26.75;;;15.55;;
54263;SDS011;40178;53.042;6.406;2024-03-08T13:42:39;22.10;;;14.30;;
54263;SDS011;40178;53.042;6.406;2024-03-08T13:45:10;23.98;;;13.77;;
54263;SDS011;40178;53.042;6.406;2024-03-08T13:47:36;21.77;;;14.65;;
54263;SDS011;40178;53.042;6.406;2024-03-08T13:50:06;22.88;;;15.20;;
54263;SDS011;40178;53.042;6.406;2024-03-08T13:52:41;24.42;;;15.02;;
54263;SDS011;40178;53.042;6.406;2024-03-08T13:55:09;23.27;;;15.13;;
54263;SDS011;40178;53.042;6.406;2024-03-08T13:57:34;22.60;;;14.15;;
54263;SDS011;40178;53.042;6.406;2024-03-08T14:00:01;23.13;;;15.20;;
54263;SDS011;40178;53.042;6.406;2024-03-08T14:02:27;22.45;;;15.45;;
54263;SDS011;40178;53.042;6.406;2024-03-08T14:04:56;22.48;;;14.82;;
54263;SDS011;40178;53.042;6.406;2024-03-08T14:07:22;21.88;;;15.02;;
54263;SDS011;40178;53.042;6.406;2024-03-08T14:09:48;23.05;;;15.05;;
54263;SDS011;40178;53.042;6.406;2024-03-08T14:12:15;22.05;;;14.38;;
54263;SDS011;40178;53.042;6.406;2024-03-08T14:14:41;22.42;;;15.05;;
54263;SDS011;40178;53.042;6.406;2024-03-08T14:17:09;22.75;;;15.25;;
54263;SDS011;40178;53.042;6.406;2024-03-08T14:19:36;24.38;;;15.15;;
54263;SDS011;40178;53.042;6.406;2024-03-08T14:22:04;21.27;;;14.82;;
54263;SDS011;40178;53.042;6.406;2024-03-08T14:24:32;21.55;;;14.40;;
54263;SDS011;40178;53.042;6.406;2024-03-08T14:27:00;23.48;;;15.07;;